West Magic, Idaho
Current Conditions -  °F | °C
As of 4:53 AM on Monday 24 Nov 2014 (Local Time) from KJER Reporting Station
Clear Clear  
Wind Chill: 21°   Ceiling: Unl
Heat Index: 31°   Visibility: 10mi
Dew Point: 26°   Wind: 14mph
Humidity: 82%   Direction: 260°W
Pressure: 30.25"   Gusts: NA
Location:  42.9609°N, 114.301°W
Report Text: KJER 241153Z AUTO 26012KT 10SM CLR M01/M03 A3025 RMK AO2 PK WND 25026/1058 SLP263 T10061033 10006 21006 53018
Loading
Personal Weather Stations






























Interactive Weather Map New forecast layout! Learn more

10-Day Weather Forecast

Advertisements
Track Severe Weather on mobile